sensor_id;sensor_type;location;lat;lon;timestamp;temperature;humidity
32728;DHT22;55292;51.844;19.246;2023-03-25T00:04:36;7.60;99.90
32728;DHT22;55292;51.844;19.246;2023-03-25T00:09:40;7.50;99.90
32728;DHT22;55292;51.844;19.246;2023-03-25T00:14:43;7.30;99.90
32728;DHT22;55292;51.844;19.246;2023-03-25T00:19:57;7.20;99.90
32728;DHT22;55292;51.844;19.246;2023-03-25T00:25:01;7.20;99.90
32728;DHT22;55292;51.844;19.246;2023-03-25T00:30:05;7.40;99.90
32728;DHT22;55292;51.844;19.246;2023-03-25T00:35:08;7.40;99.90
32728;DHT22;55292;51.844;19.246;2023-03-25T00:40:10;7.40;99.90
32728;DHT22;55292;51.844;19.246;2023-03-25T00:45:13;7.30;99.90
32728;DHT22;55292;51.844;19.246;2023-03-25T00:50:16;7.20;99.90
32728;DHT22;55292;51.844;19.246;2023-03-25T00:55:19;7.20;99.90
32728;DHT22;55292;51.844;19.246;2023-03-25T01:00:22;7.20;99.90
32728;DHT22;55292;51.844;19.246;2023-03-25T01:05:24;7.20;99.90
32728;DHT22;55292;51.844;19.246;2023-03-25T01:10:27;8.90;99.90
32728;DHT22;55292;51.844;19.246;2023-03-25T01:15:32;7.10;99.90
32728;DHT22;55292;51.844;19.246;2023-03-25T01:20:35;7.00;99.90
32728;DHT22;55292;51.844;19.246;2023-03-25T01:25:38;7.00;99.90
32728;DHT22;55292;51.844;19.246;2023-03-25T01:30:40;6.90;99.90
32728;DHT22;55292;51.844;19.246;2023-03-25T01:35:43;6.80;99.90
32728;DHT22;55292;51.844;19.246;2023-03-25T01:40:47;6.90;99.90
32728;DHT22;55292;51.844;19.246;2023-03-25T01:45:51;6.70;99.90
32728;DHT22;55292;51.844;19.246;2023-03-25T01:50:59;6.60;99.90
32728;DHT22;55292;51.844;19.246;2023-03-25T01:56:05;6.60;99.90
32728;DHT22;55292;51.844;19.246;2023-03-25T02:01:09;6.70;99.90
32728;DHT22;55292;51.844;19.246;2023-03-25T02:06:29;6.60;99.90
32728;DHT22;55292;51.844;19.246;2023-03-25T02:11:34;6.40;99.90
32728;DHT22;55292;51.844;19.246;2023-03-25T02:34:11;5.50;99.90
32728;DHT22;55292;51.844;19.246;2023-03-25T02:39:21;5.50;99.90
32728;DHT22;55292;51.844;19.246;2023-03-25T02:44:34;5.60;99.90
32728;DHT22;55292;51.844;19.246;2023-03-25T02:49:46;5.50;99.90
32728;DHT22;55292;51.844;19.246;2023-03-25T02:54:51;5.30;99.90
32728;DHT22;55292;51.844;19.246;2023-03-25T03:00:00;5.10;99.90
32728;DHT22;55292;51.844;19.246;2023-03-25T03:05:23;5.00;99.90
32728;DHT22;55292;51.844;19.246;2023-03-25T03:10:30;5.20;99.90
32728;DHT22;55292;51.844;19.246;2023-03-25T03:21:15;5.30;99.90
32728;DHT22;55292;51.844;19.246;2023-03-25T03:31:52;5.10;99.90
32728;DHT22;55292;51.844;19.246;2023-03-25T03:37:11;5.20;99.90
32728;DHT22;55292;51.844;19.246;2023-03-25T03:42:23;5.20;99.90
32728;DHT22;55292;51.844;19.246;2023-03-25T03:47:31;5.20;99.90
32728;DHT22;55292;51.844;19.246;2023-03-25T03:52:51;5.30;99.90
32728;DHT22;55292;51.844;19.246;2023-03-25T03:58:03;5.30;99.90
32728;DHT22;55292;51.844;19.246;2023-03-25T04:03:13;5.20;99.90
32728;DHT22;55292;51.844;19.246;2023-03-25T04:08:28;5.20;99.90
32728;DHT22;55292;51.844;19.246;2023-03-25T04:13:35;5.10;99.90
32728;DHT22;55292;51.844;19.246;2023-03-25T04:23:41;5.00;99.90
32728;DHT22;55292;51.844;19.246;2023-03-25T04:28:44;5.00;99.90
32728;DHT22;55292;51.844;19.246;2023-03-25T04:38:51;4.90;99.90
32728;DHT22;55292;51.844;19.246;2023-03-25T04:48:57;4.90;99.90
32728;DHT22;55292;51.844;19.246;2023-03-25T04:54:01;5.40;99.90
32728;DHT22;55292;51.844;19.246;2023-03-25T05:09:19;5.90;99.90
32728;DHT22;55292;51.844;19.246;2023-03-25T05:24:30;6.40;99.90
32728;DHT22;55292;51.844;19.246;2023-03-25T05:29:32;6.50;99.90
32728;DHT22;55292;51.844;19.246;2023-03-25T05:44:44;7.20;99.90
32728;DHT22;55292;51.844;19.246;2023-03-25T05:49:52;7.70;99.90
32728;DHT22;55292;51.844;19.246;2023-03-25T05:54:56;7.70;99.90
32728;DHT22;55292;51.844;19.246;2023-03-25T05:59:59;8.00;99.90
32728;DHT22;55292;51.844;19.246;2023-03-25T06:05:01;7.90;99.90
32728;DHT22;55292;51.844;19.246;2023-03-25T06:10:04;8.00;99.90
32728;DHT22;55292;51.844;19.246;2023-03-25T06:15:08;8.10;99.90
32728;DHT22;55292;51.844;19.246;2023-03-25T06:20:13;8.40;99.90
32728;DHT22;55292;51.844;19.246;2023-03-25T06:25:19;8.50;99.90
32728;DHT22;55292;51.844;19.246;2023-03-25T06:30:24;8.60;99.90
32728;DHT22;55292;51.844;19.246;2023-03-25T06:35:27;8.80;99.90
32728;DHT22;55292;51.844;19.246;2023-03-25T06:40:30;8.90;99.90
32728;DHT22;55292;51.844;19.246;2023-03-25T06:45:36;9.20;99.90
32728;DHT22;55292;51.844;19.246;2023-03-25T06:50:51;9.20;99.90
32728;DHT22;55292;51.844;19.246;2023-03-25T06:55:57;9.40;99.90
32728;DHT22;55292;51.844;19.246;2023-03-25T07:01:00;9.50;99.90
32728;DHT22;55292;51.844;19.246;2023-03-25T07:06:07;9.70;99.90
32728;DHT22;55292;51.844;19.246;2023-03-25T07:11:12;9.90;99.90
32728;DHT22;55292;51.844;19.246;2023-03-25T07:16:15;9.80;99.90
32728;DHT22;55292;51.844;19.246;2023-03-25T07:21:18;9.80;99.90
32728;DHT22;55292;51.844;19.246;2023-03-25T07:26:20;10.40;99.90
32728;DHT22;55292;51.844;19.246;2023-03-25T07:31:23;10.80;99.90
32728;DHT22;55292;51.844;19.246;2023-03-25T07:36:26;11.10;99.90
32728;DHT22;55292;51.844;19.246;2023-03-25T07:41:28;11.70;99.90
32728;DHT22;55292;51.844;19.246;2023-03-25T07:46:57;12.70;99.90
32728;DHT22;55292;51.844;19.246;2023-03-25T07:52:00;13.40;99.90
32728;DHT22;55292;51.844;19.246;2023-03-25T07:57:03;13.50;99.90
32728;DHT22;55292;51.844;19.246;2023-03-25T08:02:06;13.80;99.90
32728;DHT22;55292;51.844;19.246;2023-03-25T08:07:09;14.20;99.90
32728;DHT22;55292;51.844;19.246;2023-03-25T08:12:13;13.90;99.90
32728;DHT22;55292;51.844;19.246;2023-03-25T08:17:15;12.70;99.90
32728;DHT22;55292;51.844;19.246;2023-03-25T08:22:18;13.50;99.90
32728;DHT22;55292;51.844;19.246;2023-03-25T08:27:20;13.60;99.90
32728;DHT22;55292;51.844;19.246;2023-03-25T08:32:24;14.00;99.90
32728;DHT22;55292;51.844;19.246;2023-03-25T08:37:27;13.50;99.90
32728;DHT22;55292;51.844;19.246;2023-03-25T08:42:31;13.40;99.90
32728;DHT22;55292;51.844;19.246;2023-03-25T08:47:34;13.20;99.90
32728;DHT22;55292;51.844;19.246;2023-03-25T08:52:37;13.50;99.90
32728;DHT22;55292;51.844;19.246;2023-03-25T08:57:40;13.70;99.90
32728;DHT22;55292;51.844;19.246;2023-03-25T09:02:43;14.20;99.90
32728;DHT22;55292;51.844;19.246;2023-03-25T09:07:47;14.50;99.90
32728;DHT22;55292;51.844;19.246;2023-03-25T09:12:49;14.40;99.90
32728;DHT22;55292;51.844;19.246;2023-03-25T09:17:53;14.50;99.90
32728;DHT22;55292;51.844;19.246;2023-03-25T09:22:55;14.20;99.90
32728;DHT22;55292;51.844;19.246;2023-03-25T09:27:58;14.00;99.90
32728;DHT22;55292;51.844;19.246;2023-03-25T09:33:00;13.90;99.90
32728;DHT22;55292;51.844;19.246;2023-03-25T09:38:04;13.80;99.90
32728;DHT22;55292;51.844;19.246;2023-03-25T09:48:42;13.40;99.90
32728;DHT22;55292;51.844;19.246;2023-03-25T09:59:21;13.90;99.90
32728;DHT22;55292;51.844;19.246;2023-03-25T10:21:10;14.30;99.90
32728;DHT22;55292;51.844;19.246;2023-03-25T10:26:39;14.80;99.90
32728;DHT22;55292;51.844;19.246;2023-03-25T10:31:56;15.10;99.90
32728;DHT22;55292;51.844;19.246;2023-03-25T10:37:02;14.70;99.90
32728;DHT22;55292;51.844;19.246;2023-03-25T10:42:34;13.80;99.90
32728;DHT22;55292;51.844;19.246;2023-03-25T10:47:39;13.00;99.90
32728;DHT22;55292;51.844;19.246;2023-03-25T10:52:47;12.80;99.90
32728;DHT22;55292;51.844;19.246;2023-03-25T10:57:51;13.10;99.90
32728;DHT22;55292;51.844;19.246;2023-03-25T11:02:54;14.20;99.90
32728;DHT22;55292;51.844;19.246;2023-03-25T11:07:59;15.00;99.90
32728;DHT22;55292;51.844;19.246;2023-03-25T11:13:29;14.80;99.90
32728;DHT22;55292;51.844;19.246;2023-03-25T11:18:38;14.60;99.90
32728;DHT22;55292;51.844;19.246;2023-03-25T11:23:50;14.20;99.90
32728;DHT22;55292;51.844;19.246;2023-03-25T11:29:17;14.50;99.90
32728;DHT22;55292;51.844;19.246;2023-03-25T11:34:22;15.10;99.90
32728;DHT22;55292;51.844;19.246;2023-03-25T11:39:33;15.30;99.90
32728;DHT22;55292;51.844;19.246;2023-03-25T11:44:36;14.80;99.90
32728;DHT22;55292;51.844;19.246;2023-03-25T11:49:39;14.40;99.90
32728;DHT22;55292;51.844;19.246;2023-03-25T11:54:43;14.20;99.90
32728;DHT22;55292;51.844;19.246;2023-03-25T11:59:48;14.50;99.90
32728;DHT22;55292;51.844;19.246;2023-03-25T12:10:03;15.20;99.90
32728;DHT22;55292;51.844;19.246;2023-03-25T12:20:19;15.90;99.90
32728;DHT22;55292;51.844;19.246;2023-03-25T12:25:35;15.50;99.90
32728;DHT22;55292;51.844;19.246;2023-03-25T12:47:26;14.70;99.90
32728;DHT22;55292;51.844;19.246;2023-03-25T12:52:43;11.60;99.90
32728;DHT22;55292;51.844;19.246;2023-03-25T13:13:35;8.90;99.90
32728;DHT22;55292;51.844;19.246;2023-03-25T13:18:42;8.80;99.90
32728;DHT22;55292;51.844;19.246;2023-03-25T13:24:01;8.90;99.90
32728;DHT22;55292;51.844;19.246;2023-03-25T13:29:30;9.10;99.90
32728;DHT22;55292;51.844;19.246;2023-03-25T13:35:06;9.80;99.90
32728;DHT22;55292;51.844;19.246;2023-03-25T13:40:29;11.20;99.90
32728;DHT22;55292;51.844;19.246;2023-03-25T13:51:08;11.50;99.90
32728;DHT22;55292;51.844;19.246;2023-03-25T14:17:04;11.70;99.90
32728;DHT22;55292;51.844;19.246;2023-03-25T14:22:20;11.70;99.90
32728;DHT22;55292;51.844;19.246;2023-03-25T14:27:47;11.60;99.90
32728;DHT22;55292;51.844;19.246;2023-03-25T14:32:53;11.60;99.90
32728;DHT22;55292;51.844;19.246;2023-03-25T14:43:35;11.50;99.90
32728;DHT22;55292;51.844;19.246;2023-03-25T14:49:08;11.70;99.90
32728;DHT22;55292;51.844;19.246;2023-03-25T14:54:29;11.80;99.90
32728;DHT22;55292;51.844;19.246;2023-03-25T14:59:40;11.80;99.90
32728;DHT22;55292;51.844;19.246;2023-03-25T15:05:36;11.80;99.90
32728;DHT22;55292;51.844;19.246;2023-03-25T15:10:33;11.70;99.90
32728;DHT22;55292;51.844;19.246;2023-03-25T15:20:46;11.60;99.90
32728;DHT22;55292;51.844;19.246;2023-03-25T15:25:50;11.60;99.90
32728;DHT22;55292;51.844;19.246;2023-03-25T15:58:01;9.40;99.90
32728;DHT22;55292;51.844;19.246;2023-03-25T16:03:13;9.40;99.90
32728;DHT22;55292;51.844;19.246;2023-03-25T16:13:35;9.80;99.90
32728;DHT22;55292;51.844;19.246;2023-03-25T16:24:29;9.80;99.90
32728;DHT22;55292;51.844;19.246;2023-03-25T16:29:37;9.50;99.90
32728;DHT22;55292;51.844;19.246;2023-03-25T16:34:40;9.30;99.90
32728;DHT22;55292;51.844;19.246;2023-03-25T16:39:48;9.00;99.90
32728;DHT22;55292;51.844;19.246;2023-03-25T16:44:52;8.90;99.90
32728;DHT22;55292;51.844;19.246;2023-03-25T16:49:56;8.80;99.90
32728;DHT22;55292;51.844;19.246;2023-03-25T17:00:18;8.90;99.90
32728;DHT22;55292;51.844;19.246;2023-03-25T17:05:23;8.70;99.90
32728;DHT22;55292;51.844;19.246;2023-03-25T17:10:29;8.40;99.90
32728;DHT22;55292;51.844;19.246;2023-03-25T17:15:32;8.00;99.90
32728;DHT22;55292;51.844;19.246;2023-03-25T17:20:41;7.80;99.90
32728;DHT22;55292;51.844;19.246;2023-03-25T17:25:59;7.50;99.90
32728;DHT22;55292;51.844;19.246;2023-03-25T17:31:32;7.30;99.90
32728;DHT22;55292;51.844;19.246;2023-03-25T17:36:43;6.90;99.90
32728;DHT22;55292;51.844;19.246;2023-03-25T17:42:04;7.00;99.90
32728;DHT22;55292;51.844;19.246;2023-03-25T17:47:13;6.90;99.90
32728;DHT22;55292;51.844;19.246;2023-03-25T17:52:16;6.90;99.90
32728;DHT22;55292;51.844;19.246;2023-03-25T17:57:21;6.80;99.90
32728;DHT22;55292;51.844;19.246;2023-03-25T18:02:25;6.60;99.90
32728;DHT22;55292;51.844;19.246;2023-03-25T18:07:29;6.40;99.90
32728;DHT22;55292;51.844;19.246;2023-03-25T18:12:33;6.20;99.90
32728;DHT22;55292;51.844;19.246;2023-03-25T18:17:36;6.00;99.90
32728;DHT22;55292;51.844;19.246;2023-03-25T18:22:39;5.90;99.90
32728;DHT22;55292;51.844;19.246;2023-03-25T18:27:41;5.90;99.90
32728;DHT22;55292;51.844;19.246;2023-03-25T18:32:45;5.90;99.90
32728;DHT22;55292;51.844;19.246;2023-03-25T18:37:48;6.00;99.90
32728;DHT22;55292;51.844;19.246;2023-03-25T18:42:51;6.00;99.90
32728;DHT22;55292;51.844;19.246;2023-03-25T18:47:54;6.00;99.90
32728;DHT22;55292;51.844;19.246;2023-03-25T18:52:58;5.90;99.90
32728;DHT22;55292;51.844;19.246;2023-03-25T18:58:00;5.80;99.90
32728;DHT22;55292;51.844;19.246;2023-03-25T19:03:03;5.70;99.90
32728;DHT22;55292;51.844;19.246;2023-03-25T19:08:09;5.30;99.90
32728;DHT22;55292;51.844;19.246;2023-03-25T19:13:15;5.00;99.90
32728;DHT22;55292;51.844;19.246;2023-03-25T19:18:20;4.70;99.90
32728;DHT22;55292;51.844;19.246;2023-03-25T19:28:26;4.80;99.90
32728;DHT22;55292;51.844;19.246;2023-03-25T19:33:29;5.20;99.90
32728;DHT22;55292;51.844;19.246;2023-03-25T19:48:39;5.10;99.90
32728;DHT22;55292;51.844;19.246;2023-03-25T19:58:45;5.30;99.90
32728;DHT22;55292;51.844;19.246;2023-03-25T20:03:48;5.20;99.90
32728;DHT22;55292;51.844;19.246;2023-03-25T20:13:54;5.60;99.90
32728;DHT22;55292;51.844;19.246;2023-03-25T20:24:00;5.60;99.90
32728;DHT22;55292;51.844;19.246;2023-03-25T20:29:03;5.50;99.90
32728;DHT22;55292;51.844;19.246;2023-03-25T20:34:06;5.50;99.90
32728;DHT22;55292;51.844;19.246;2023-03-25T20:39:08;5.60;99.90
32728;DHT22;55292;51.844;19.246;2023-03-25T20:44:12;5.50;99.90
32728;DHT22;55292;51.844;19.246;2023-03-25T20:49:16;5.20;99.90
32728;DHT22;55292;51.844;19.246;2023-03-25T20:54:21;5.00;99.90
32728;DHT22;55292;51.844;19.246;2023-03-25T20:59:23;4.90;99.90
32728;DHT22;55292;51.844;19.246;2023-03-25T21:04:26;5.00;99.90
32728;DHT22;55292;51.844;19.246;2023-03-25T21:09:29;5.10;99.90
32728;DHT22;55292;51.844;19.246;2023-03-25T21:19:34;5.70;99.90
32728;DHT22;55292;51.844;19.246;2023-03-25T21:34:43;6.20;99.90
32728;DHT22;55292;51.844;19.246;2023-03-25T21:39:45;6.20;99.90
32728;DHT22;55292;51.844;19.246;2023-03-25T21:44:49;6.10;99.90
32728;DHT22;55292;51.844;19.246;2023-03-25T21:49:52;6.20;99.90
32728;DHT22;55292;51.844;19.246;2023-03-25T21:54:54;6.30;99.90
32728;DHT22;55292;51.844;19.246;2023-03-25T22:00:00;6.20;99.90
32728;DHT22;55292;51.844;19.246;2023-03-25T22:05:14;6.20;99.90
32728;DHT22;55292;51.844;19.246;2023-03-25T22:10:17;6.10;99.90
32728;DHT22;55292;51.844;19.246;2023-03-25T22:15:20;6.00;99.90
32728;DHT22;55292;51.844;19.246;2023-03-25T22:20:23;6.10;99.90
32728;DHT22;55292;51.844;19.246;2023-03-25T22:25:25;6.30;99.90
32728;DHT22;55292;51.844;19.246;2023-03-25T22:30:28;6.50;99.90
32728;DHT22;55292;51.844;19.246;2023-03-25T22:35:31;6.60;99.90
32728;DHT22;55292;51.844;19.246;2023-03-25T22:40:35;6.50;99.90
32728;DHT22;55292;51.844;19.246;2023-03-25T22:45:37;6.70;99.90
32728;DHT22;55292;51.844;19.246;2023-03-25T22:50:40;6.80;99.90
32728;DHT22;55292;51.844;19.246;2023-03-25T22:55:47;6.80;99.90
32728;DHT22;55292;51.844;19.246;2023-03-25T23:00:55;6.90;99.90
32728;DHT22;55292;51.844;19.246;2023-03-25T23:06:06;6.90;99.90
32728;DHT22;55292;51.844;19.246;2023-03-25T23:11:24;6.90;99.90
32728;DHT22;55292;51.844;19.246;2023-03-25T23:16:29;6.90;99.90
32728;DHT22;55292;51.844;19.246;2023-03-25T23:21:32;7.00;99.90
32728;DHT22;55292;51.844;19.246;2023-03-25T23:26:37;6.90;99.90
32728;DHT22;55292;51.844;19.246;2023-03-25T23:31:42;6.90;99.90
32728;DHT22;55292;51.844;19.246;2023-03-25T23:36:45;7.00;99.90
32728;DHT22;55292;51.844;19.246;2023-03-25T23:41:49;7.00;99.90
32728;DHT22;55292;51.844;19.246;2023-03-25T23:46:51;6.90;99.90
32728;DHT22;55292;51.844;19.246;2023-03-25T23:51:54;6.90;99.90
32728;DHT22;55292;51.844;19.246;2023-03-25T23:56:57;6.90;99.90
